createdAt,value
2018-12-06T00:00:10.587Z,98545.64
2018-12-06T00:02:39.064Z,98540.58
2018-12-06T00:05:07.797Z,98522.31
2018-12-06T00:07:36.276Z,98511.78
2018-12-06T00:10:05.074Z,98513.27
2018-12-06T00:12:33.561Z,98519.98
2018-12-06T00:15:13.230Z,98522.14
2018-12-06T00:17:41.713Z,98517.21
2018-12-06T00:20:10.149Z,98517.52
2018-12-06T00:22:38.620Z,98527.22
2018-12-06T00:25:07.245Z,98525.61
2018-12-06T00:27:35.707Z,98536.11
2018-12-06T00:30:15.318Z,98551.91
2018-12-06T00:32:43.789Z,98540.71
2018-12-06T00:35:12.247Z,98524.27
2018-12-06T00:37:40.709Z,98504.69
2018-12-06T00:40:09.380Z,98500.11
2018-12-06T00:42:37.861Z,98522.92
2018-12-06T00:45:06.623Z,98522.13
2018-12-06T00:47:35.107Z,98520.96
2018-12-06T00:50:03.568Z,98527.23
2018-12-06T00:52:32.067Z,98523.42
2018-12-06T00:55:00.501Z,98527.72
2018-12-06T00:57:28.930Z,98527.72
2018-12-06T00:59:57.398Z,98525.59
2018-12-06T01:02:25.856Z,98527.23
2018-12-06T01:04:54.465Z,98521.63
2018-12-06T01:07:22.908Z,98529.69
2018-12-06T01:09:51.492Z,98544.99
2018-12-06T01:12:20.095Z,98542.86
2018-12-06T01:14:48.573Z,98538.75
2018-12-06T01:17:17.156Z,98537.28
2018-12-06T01:19:45.616Z,98543.04
2018-12-06T01:22:14.072Z,98536.77
2018-12-06T01:24:42.556Z,98543.52
2018-12-06T01:27:10.999Z,98534.33
2018-12-06T01:29:39.449Z,98530.69
2018-12-06T01:32:07.901Z,98521.98
2018-12-06T01:34:36.357Z,98517.71
2018-12-06T01:37:04.805Z,98512.58
2018-12-06T01:39:33.285Z,98512.77
2018-12-06T01:42:01.786Z,98508.16
2018-12-06T01:44:30.310Z,98514.23
2018-12-06T01:46:58.761Z,98522.61
2018-12-06T01:49:27.233Z,98518.02
2018-12-06T01:51:55.688Z,98521.66
2018-12-06T01:54:24.156Z,98544.52
2018-12-06T01:56:52.581Z,98553.55
2018-12-06T01:59:21.157Z,98551.13
2018-12-06T02:01:49.613Z,98547.00
2018-12-06T02:04:18.084Z,98540.41
2018-12-06T02:06:46.564Z,98541.73
2018-12-06T02:09:15.093Z,98540.44
2018-12-06T02:11:43.532Z,98538.27
2018-12-06T02:14:12.046Z,98539.44
2018-12-06T02:16:40.487Z,98523.81
2018-12-06T02:19:08.995Z,98527.09
2018-12-06T02:21:37.451Z,98535.00
2018-12-06T02:24:05.956Z,98526.42
2018-12-06T02:26:34.454Z,98524.78
2018-12-06T02:29:02.974Z,98530.89
2018-12-06T02:31:31.424Z,98530.73
2018-12-06T02:33:59.922Z,98541.09
2018-12-06T02:36:28.449Z,98547.00
2018-12-06T02:38:56.929Z,98545.52
2018-12-06T02:41:25.403Z,98549.98
2018-12-06T02:43:53.844Z,98557.37
2018-12-06T02:46:22.328Z,98550.98
2018-12-06T02:48:50.851Z,98549.65
2018-12-06T02:51:19.366Z,98544.87
2018-12-06T02:53:47.808Z,98531.22
2018-12-06T02:56:16.321Z,98523.15
2018-12-06T02:58:44.785Z,98514.75
2018-12-06T03:01:13.275Z,98507.68
2018-12-06T03:03:41.782Z,98509.83
2018-12-06T03:06:10.266Z,98505.86
2018-12-06T03:08:38.724Z,98497.48
2018-12-06T03:11:07.222Z,98491.08
2018-12-06T03:13:35.667Z,98492.88
2018-12-06T03:16:04.173Z,98496.34
2018-12-06T03:18:32.625Z,98491.73
2018-12-06T03:21:01.127Z,98510.66
2018-12-06T03:23:29.588Z,98517.56
2018-12-06T03:25:58.063Z,98517.56
2018-12-06T03:28:26.486Z,98509.49
2018-12-06T03:30:54.981Z,98518.20
2018-12-06T03:33:23.462Z,98524.63
2018-12-06T03:35:52.053Z,98516.07
2018-12-06T03:38:20.487Z,98517.39
2018-12-06T03:40:48.952Z,98508.33
2018-12-06T03:43:17.389Z,98498.47
2018-12-06T03:45:45.844Z,98491.88
2018-12-06T03:48:14.296Z,98505.86
2018-12-06T03:50:42.769Z,98497.13
2018-12-06T03:53:11.218Z,98501.08
2018-12-06T03:55:39.670Z,98481.03
2018-12-06T03:58:08.233Z,98492.70
2018-12-06T04:00:36.713Z,98490.08
2018-12-06T04:03:05.156Z,98493.05
2018-12-06T04:05:33.757Z,98492.70
2018-12-06T04:08:02.193Z,98487.94
2018-12-06T04:10:30.665Z,98486.13
2018-12-06T04:12:59.324Z,98488.43
2018-12-06T04:15:27.818Z,98478.38
2018-12-06T04:17:56.296Z,98480.70
2018-12-06T04:20:26.470Z,98469.68
2018-12-06T04:22:55.189Z,98473.29
2018-12-06T04:25:23.766Z,98476.23
2018-12-06T04:27:52.232Z,98470.97
2018-12-06T04:30:20.672Z,98475.58
2018-12-06T04:32:49.149Z,98486.11
2018-12-06T04:35:17.701Z,98479.22
2018-12-06T04:37:46.175Z,98477.88
2018-12-06T04:40:14.619Z,98480.19
2018-12-06T04:42:43.224Z,98479.36
2018-12-06T04:45:11.789Z,98474.12
2018-12-06T04:47:40.721Z,98474.60
2018-12-06T04:50:09.292Z,98484.14
2018-12-06T04:52:37.777Z,98487.59
2018-12-06T04:55:06.252Z,98493.03
2018-12-06T04:57:34.740Z,98498.78
2018-12-06T05:00:03.355Z,98497.98
2018-12-06T05:02:31.848Z,98494.50
2018-12-06T05:05:00.287Z,98500.25
2018-12-06T05:07:28.784Z,98502.09
2018-12-06T05:09:57.227Z,98504.55
2018-12-06T05:12:25.689Z,98504.40
2018-12-06T05:14:54.135Z,98497.97
2018-12-06T05:17:22.601Z,98499.94
2018-12-06T05:19:51.044Z,98495.35
2018-12-06T05:22:19.533Z,98501.11
2018-12-06T05:24:47.988Z,98498.80
2018-12-06T05:27:16.468Z,98502.42
2018-12-06T05:29:44.918Z,98499.80
2018-12-06T05:32:13.380Z,98501.91
2018-12-06T05:34:41.818Z,98503.58
2018-12-06T05:37:10.289Z,98497.48
2018-12-06T05:39:38.733Z,98496.33
2018-12-06T05:42:07.187Z,98495.84
2018-12-06T05:44:35.616Z,98490.08
2018-12-06T05:47:04.080Z,98489.91
2018-12-06T05:49:32.532Z,98487.76
2018-12-06T05:52:00.986Z,98480.88
2018-12-06T05:54:29.434Z,98474.11
2018-12-06T05:56:57.898Z,98473.45
2018-12-06T05:59:26.354Z,98478.55
2018-12-06T06:01:56.070Z,98483.66
2018-12-06T06:04:24.516Z,98479.37
2018-12-06T06:06:52.971Z,98482.17
2018-12-06T06:09:21.403Z,98484.65
2018-12-06T06:11:49.871Z,98480.70
2018-12-06T06:14:18.310Z,98486.95
2018-12-06T06:16:46.761Z,98477.72
2018-12-06T06:19:15.247Z,98482.84
2018-12-06T06:21:43.681Z,98484.48
2018-12-06T06:24:12.276Z,98491.72
2018-12-06T06:26:40.709Z,98492.05
2018-12-06T06:29:09.269Z,98494.50
2018-12-06T06:31:37.703Z,98497.16
2018-12-06T06:34:06.216Z,98509.30
2018-12-06T06:36:34.655Z,98513.41
2018-12-06T06:39:04.345Z,98521.96
2018-12-06T06:41:32.788Z,98511.43
2018-12-06T06:44:01.237Z,98509.77
2018-12-06T06:46:29.676Z,98509.42
2018-12-06T06:48:58.156Z,98505.61
2018-12-06T06:51:26.591Z,98508.92
2018-12-06T06:53:55.056Z,98515.98
2018-12-06T06:56:23.499Z,98517.45
2018-12-06T06:58:51.976Z,98524.52
2018-12-06T07:01:20.493Z,98521.41
2018-12-06T07:03:48.985Z,98522.90
2018-12-06T07:06:18.177Z,98523.41
2018-12-06T07:08:46.650Z,98531.97
2018-12-06T07:11:15.070Z,98537.08
2018-12-06T07:13:43.559Z,98537.39
2018-12-06T07:16:12.002Z,98530.67
2018-12-06T07:18:40.461Z,98526.73
2018-12-06T07:21:08.942Z,98529.22
2018-12-06T07:23:44.714Z,98530.37
2018-12-06T07:26:13.289Z,98533.99
2018-12-06T07:28:41.797Z,98537.80
2018-12-06T07:31:10.509Z,98543.72
2018-12-06T07:33:39.066Z,98539.27
2018-12-06T07:36:08.521Z,98541.06
2018-12-06T07:38:37.104Z,98545.69
2018-12-06T07:41:05.602Z,98557.37
2018-12-06T07:43:34.373Z,98555.91
2018-12-06T07:46:09.879Z,98554.43
2018-12-06T07:48:39.630Z,98550.15
2018-12-06T07:51:08.247Z,98556.56
2018-12-06T07:53:36.701Z,98560.33
2018-12-06T07:56:05.535Z,98559.84
2018-12-06T07:58:34.028Z,98558.36
2018-12-06T08:01:02.962Z,98560.34
2018-12-06T08:03:31.521Z,98559.68
2018-12-06T08:05:59.960Z,98554.91
2018-12-06T08:08:32.052Z,98554.91
2018-12-06T08:11:00.472Z,98560.18
2018-12-06T08:13:28.988Z,98554.08
2018-12-06T08:18:50.172Z,98563.95
2018-12-06T08:21:18.602Z,98566.25
2018-12-06T08:23:47.088Z,98572.50
2018-12-06T08:26:15.505Z,98571.30
2018-12-06T08:28:43.999Z,98566.83
2018-12-06T08:31:12.497Z,98562.38
2018-12-06T08:33:40.975Z,98562.56
2018-12-06T08:36:09.413Z,98562.17
2018-12-06T08:38:37.885Z,98562.87
2018-12-06T08:41:06.389Z,98560.30
2018-12-06T08:43:34.895Z,98560.13
2018-12-06T08:46:03.374Z,98570.98
2018-12-06T08:48:31.904Z,98570.02
2018-12-06T08:51:00.339Z,98571.50
2018-12-06T08:53:28.770Z,98576.60
2018-12-06T08:55:58.232Z,98579.38
2018-12-06T08:58:26.721Z,98576.75
2018-12-06T09:01:00.978Z,98577.38
2018-12-06T09:03:29.696Z,98583.75
2018-12-06T09:05:58.416Z,98580.80
2018-12-06T09:08:26.904Z,98578.83
2018-12-06T09:10:55.382Z,98569.95
2018-12-06T09:13:27.005Z,98565.20
2018-12-06T09:15:55.452Z,98573.91
2018-12-06T09:18:23.911Z,98572.72
2018-12-06T09:20:52.701Z,98577.77
2018-12-06T09:23:21.153Z,98580.47
2018-12-06T09:25:49.802Z,98585.86
2018-12-06T09:28:18.259Z,98587.31
2018-12-06T09:30:46.728Z,98585.13
2018-12-06T09:33:15.199Z,98591.87
2018-12-06T09:35:43.664Z,98598.75
2018-12-06T09:38:12.103Z,98603.81
2018-12-06T09:40:40.589Z,98608.18
2018-12-06T09:43:09.193Z,98607.66
2018-12-06T09:45:37.675Z,98607.52
2018-12-06T09:48:06.273Z,98603.92
2018-12-06T09:50:34.756Z,98598.34
2018-12-06T09:53:03.171Z,98602.44
2018-12-06T09:55:31.663Z,98599.62
2018-12-06T10:00:52.512Z,98599.97
2018-12-06T10:03:21.053Z,98606.09
2018-12-06T10:05:49.580Z,98600.80
2018-12-06T10:08:18.049Z,98604.09
2018-12-06T10:10:46.573Z,98605.86
2018-12-06T10:13:15.099Z,98602.23
2018-12-06T10:18:36.039Z,98596.80
2018-12-06T10:21:05.700Z,98591.82
2018-12-06T10:26:24.380Z,98596.55
2018-12-06T10:31:45.405Z,98596.06
2018-12-06T10:34:13.847Z,98596.73
2018-12-06T10:39:35.386Z,98595.12
2018-12-06T10:42:03.989Z,98597.94
2018-12-06T10:56:15.388Z,98585.92
2018-12-06T10:58:43.817Z,98587.70
2018-12-06T11:01:14.301Z,98602.21
2018-12-06T11:04:13.412Z,98601.36
2018-12-06T11:06:41.916Z,98592.91
2018-12-06T11:09:15.154Z,98599.30
2018-12-06T11:15:22.746Z,98589.01
2018-12-06T11:23:36.232Z,98597.26
2018-12-06T11:26:05.487Z,98604.23
2018-12-06T11:28:34.352Z,98602.05
2018-12-06T11:31:02.909Z,98606.66
2018-12-06T11:33:31.352Z,98602.41
2018-12-06T11:41:45.548Z,98632.01
2018-12-06T11:44:13.997Z,98628.75
2018-12-06T11:50:18.325Z,98612.72
2018-12-06T11:52:46.813Z,98604.88
2018-12-06T11:58:11.607Z,98589.59
2018-12-06T12:00:40.242Z,98588.78
2018-12-06T12:06:01.296Z,98565.79
2018-12-06T12:08:29.777Z,98567.73
2018-12-06T12:10:58.400Z,98561.77
2018-12-06T12:13:26.880Z,98574.61
2018-12-06T12:18:46.430Z,98586.61
2018-12-06T12:21:14.965Z,98572.80
2018-12-06T12:23:43.431Z,98569.39
2018-12-06T12:26:11.921Z,98568.25
2018-12-06T12:28:40.403Z,98552.59
2018-12-06T12:31:08.873Z,98549.90
2018-12-06T12:33:37.363Z,98555.16
2018-12-06T12:36:05.895Z,98560.00
2018-12-06T12:38:34.535Z,98560.81
2018-12-06T12:41:02.998Z,98557.52
2018-12-06T12:43:31.494Z,98560.63
2018-12-06T12:45:59.974Z,98547.05
2018-12-06T12:48:28.463Z,98525.94
2018-12-06T12:50:56.979Z,98516.10
2018-12-06T12:53:25.476Z,98529.78
2018-12-06T12:55:53.946Z,98532.87
2018-12-06T12:58:22.435Z,98544.52
2018-12-06T13:00:50.914Z,98549.13
2018-12-06T13:03:19.400Z,98542.87
2018-12-06T13:05:47.882Z,98534.08
2018-12-06T13:08:16.386Z,98539.13
2018-12-06T13:10:44.864Z,98554.49
2018-12-06T13:20:11.188Z,98565.66
2018-12-06T13:22:39.659Z,98576.13
2018-12-06T13:25:08.265Z,98591.21
2018-12-06T13:27:36.768Z,98589.79
2018-12-06T13:30:06.216Z,98590.21
2018-12-06T13:32:34.744Z,98589.17
2018-12-06T13:35:03.459Z,98588.98
2018-12-06T13:37:31.948Z,98580.72
2018-12-06T13:40:00.414Z,98589.63
2018-12-06T13:42:28.912Z,98610.22
2018-12-06T13:44:57.394Z,98612.39
2018-12-06T13:47:25.896Z,98612.11
2018-12-06T13:49:54.386Z,98613.64
2018-12-06T13:52:22.846Z,98607.70
2018-12-06T13:54:51.295Z,98608.25
2018-12-06T13:57:19.891Z,98611.28
2018-12-06T13:59:48.432Z,98613.18
2018-12-06T14:02:16.903Z,98616.50
2018-12-06T14:04:45.335Z,98609.13
2018-12-06T14:07:13.787Z,98607.14
2018-12-06T14:09:42.235Z,98603.48
2018-12-06T14:12:10.715Z,98606.61
2018-12-06T14:14:39.811Z,98599.39
2018-12-06T14:17:12.150Z,98601.94
2018-12-06T14:19:40.752Z,98598.48
2018-12-06T14:22:09.221Z,98599.86
2018-12-06T14:24:37.679Z,98602.21
2018-12-06T14:27:06.171Z,98606.17
2018-12-06T14:29:34.631Z,98603.02
2018-12-06T14:32:03.108Z,98606.42
2018-12-06T14:34:31.546Z,98607.73
2018-12-06T14:37:02.239Z,98611.52
2018-12-06T14:39:30.535Z,98601.61
2018-12-06T14:41:58.988Z,98620.63
2018-12-06T14:44:27.455Z,98617.16
2018-12-06T14:46:55.896Z,98616.48
2018-12-06T14:49:24.362Z,98624.77
2018-12-06T14:51:52.819Z,98631.20
2018-12-06T14:54:21.326Z,98624.97
2018-12-06T14:56:49.771Z,98627.73
2018-12-06T14:59:18.247Z,98625.80
2018-12-06T15:01:46.702Z,98631.16
2018-12-06T15:04:15.169Z,98636.02
2018-12-06T15:06:43.625Z,98628.94
2018-12-06T15:09:12.099Z,98628.64
2018-12-06T15:11:40.565Z,98623.84
2018-12-06T15:14:09.035Z,98622.88
2018-12-06T15:16:37.492Z,98623.19
2018-12-06T15:19:05.980Z,98618.09
2018-12-06T15:21:34.450Z,98614.97
2018-12-06T15:24:02.902Z,98617.30
2018-12-06T15:26:31.342Z,98619.11
2018-12-06T15:28:59.828Z,98617.30
2018-12-06T15:31:28.266Z,98623.91
2018-12-06T15:33:56.730Z,98620.29
2018-12-06T15:36:25.175Z,98627.86
2018-12-06T15:38:53.643Z,98625.22
2018-12-06T15:41:22.144Z,98625.22
2018-12-06T15:43:50.587Z,98642.36
2018-12-06T15:46:19.041Z,98632.61
2018-12-06T15:48:47.547Z,98643.98
2018-12-06T15:51:15.997Z,98650.19
2018-12-06T15:53:44.472Z,98649.53
2018-12-06T15:56:12.915Z,98651.20
2018-12-06T15:58:41.383Z,98654.19
2018-12-06T16:01:09.830Z,98661.72
2018-12-06T16:03:38.329Z,98660.56
2018-12-06T16:06:06.777Z,98654.75
2018-12-06T16:08:35.253Z,98650.14
2018-12-06T16:11:03.712Z,98649.65
2018-12-06T16:13:32.170Z,98645.88
2018-12-06T16:16:00.640Z,98635.98
2018-12-06T16:18:29.097Z,98629.55
2018-12-06T16:20:57.531Z,98634.34
2018-12-06T16:23:26.008Z,98637.16
2018-12-06T16:25:56.630Z,98636.64
2018-12-06T16:28:25.101Z,98638.80
2018-12-06T16:30:53.543Z,98628.76
2018-12-06T16:33:22.054Z,98628.59
2018-12-06T16:35:50.478Z,98632.59
2018-12-06T16:38:19.744Z,98639.20
2018-12-06T16:40:48.237Z,98636.20
2018-12-06T16:43:16.685Z,98633.91
2018-12-06T16:45:45.131Z,98630.75
2018-12-06T16:48:13.796Z,98631.41
2018-12-06T16:50:42.266Z,98638.35
2018-12-06T16:53:10.700Z,98648.91
2018-12-06T16:55:39.171Z,98647.72
2018-12-06T16:58:08.295Z,98652.83
2018-12-06T17:00:36.889Z,98653.13
2018-12-06T17:03:05.460Z,98654.93
2018-12-06T17:05:33.923Z,98648.16
2018-12-06T17:08:02.365Z,98654.27
2018-12-06T17:10:30.847Z,98659.72
2018-12-06T17:12:59.282Z,98652.16
2018-12-06T17:15:27.763Z,98655.52
2018-12-06T17:17:56.200Z,98663.88
2018-12-06T17:20:24.677Z,98672.27
2018-12-06T17:22:53.121Z,98672.45
2018-12-06T17:25:21.587Z,98666.34
2018-12-06T17:27:50.048Z,98665.69
2018-12-06T17:30:18.668Z,98679.05
2018-12-06T17:32:47.239Z,98669.14
2018-12-06T17:35:15.675Z,98660.09
2018-12-06T17:37:44.110Z,98663.27
2018-12-06T17:40:12.695Z,98670.52
2018-12-06T17:42:41.139Z,98666.38
2018-12-06T17:45:09.750Z,98668.98
2018-12-06T17:47:38.214Z,98669.80
2018-12-06T17:50:07.177Z,98675.05
2018-12-06T17:52:35.627Z,98674.54
2018-12-06T17:55:04.718Z,98670.70
2018-12-06T17:58:57.555Z,98672.80
2018-12-06T18:01:26.003Z,98666.75
2018-12-06T18:03:54.488Z,98679.42
2018-12-06T18:06:22.936Z,98666.69
2018-12-06T18:08:51.386Z,98669.20
2018-12-06T18:11:19.912Z,98678.33
2018-12-06T18:13:48.362Z,98670.54
2018-12-06T18:16:19.723Z,98670.05
2018-12-06T18:18:47.329Z,98681.92
2018-12-06T18:21:16.203Z,98681.39
2018-12-06T18:30:40.571Z,98671.31
2018-12-06T18:33:09.302Z,98678.22
2018-12-06T18:35:37.800Z,98687.09
2018-12-06T18:38:06.241Z,98698.94
2018-12-06T18:40:34.776Z,98692.81
2018-12-06T18:43:03.217Z,98694.31
2018-12-06T18:45:33.191Z,98696.46
2018-12-06T18:48:01.868Z,98692.14
2018-12-06T18:50:30.327Z,98685.55
2018-12-06T18:52:58.938Z,98683.43
2018-12-06T18:55:28.778Z,98682.11
2018-12-06T18:57:57.414Z,98681.28
2018-12-06T19:00:25.961Z,98675.02
2018-12-06T19:02:54.414Z,98681.94
2018-12-06T19:05:22.899Z,98693.29
2018-12-06T19:07:51.364Z,98677.30
2018-12-06T19:10:19.843Z,98673.70
2018-12-06T19:12:48.301Z,98687.53
2018-12-06T19:15:16.905Z,98695.93
2018-12-06T19:17:45.338Z,98701.52
2018-12-06T19:20:13.825Z,98695.44
2018-12-06T19:22:42.269Z,98692.67
2018-12-06T19:25:10.879Z,98685.77
2018-12-06T19:27:39.308Z,98683.14
2018-12-06T19:30:09.660Z,98686.78
2018-12-06T19:32:38.083Z,98687.75
2018-12-06T19:35:07.326Z,98692.85
2018-12-06T19:37:35.805Z,98697.30
2018-12-06T19:40:05.129Z,98691.85
2018-12-06T19:42:38.651Z,98690.57
2018-12-06T19:45:04.249Z,98692.50
2018-12-06T19:47:32.695Z,98687.34
2018-12-06T19:50:01.198Z,98678.58
2018-12-06T19:52:29.656Z,98684.20
2018-12-06T19:54:58.146Z,98682.72
2018-12-06T19:57:26.611Z,98687.33
2018-12-06T19:59:55.086Z,98690.64
2018-12-06T20:02:23.554Z,98692.93
2018-12-06T20:07:45.001Z,98676.47
2018-12-06T20:10:14.111Z,98664.06
2018-12-06T20:12:42.570Z,98652.70
2018-12-06T20:15:11.067Z,98664.76
2018-12-06T20:17:39.555Z,98667.05
2018-12-06T20:20:08.411Z,98665.44
2018-12-06T20:22:36.864Z,98664.47
2018-12-06T20:25:21.470Z,98661.83
2018-12-06T20:27:50.564Z,98662.32
2018-12-06T20:30:19.310Z,98664.81
2018-12-06T20:32:47.799Z,98665.61
2018-12-06T20:35:16.219Z,98654.38
2018-12-06T20:37:44.688Z,98653.20
2018-12-06T20:40:13.410Z,98650.55
2018-12-06T20:42:41.889Z,98645.45
2018-12-06T20:48:19.450Z,98636.73
2018-12-06T20:50:49.507Z,98639.19
2018-12-06T20:53:18.150Z,98628.80
2018-12-06T20:55:46.619Z,98630.27
2018-12-06T20:58:15.436Z,98633.92
2018-12-06T21:00:44.167Z,98632.24
2018-12-06T21:03:12.707Z,98634.59
2018-12-06T21:05:45.040Z,98625.16
2018-12-06T21:11:06.579Z,98617.06
2018-12-06T21:13:35.022Z,98619.98
2018-12-06T21:16:03.635Z,98612.24
2018-12-06T21:18:32.135Z,98615.36
2018-12-06T21:21:00.588Z,98613.68
2018-12-06T21:23:29.000Z,98612.89
2018-12-06T21:25:57.411Z,98608.95
2018-12-06T21:28:25.857Z,98618.12
2018-12-06T21:30:54.279Z,98616.78
2018-12-06T21:33:22.740Z,98617.92
2018-12-06T21:35:51.163Z,98615.27
2018-12-06T21:38:19.748Z,98613.98
2018-12-06T21:40:48.258Z,98614.63
2018-12-06T21:43:16.721Z,98620.92
2018-12-06T21:45:45.168Z,98615.34
2018-12-06T21:48:13.630Z,98617.79
2018-12-06T21:50:42.101Z,98621.39
2018-12-06T21:53:10.581Z,98631.30
2018-12-06T21:55:39.035Z,98621.98
2018-12-06T21:58:07.496Z,98623.28
2018-12-06T22:00:35.927Z,98621.23
2018-12-06T22:03:04.413Z,98621.71
2018-12-06T22:05:32.856Z,98630.65
2018-12-06T22:08:01.316Z,98626.98
2018-12-06T22:10:29.764Z,98627.00
2018-12-06T22:12:58.201Z,98627.52
2018-12-06T22:15:26.647Z,98626.88
2018-12-06T22:17:55.119Z,98619.31
2018-12-06T22:20:24.188Z,98621.80
2018-12-06T22:22:52.649Z,98623.95
2018-12-06T22:25:21.088Z,98623.94
2018-12-06T22:27:49.578Z,98615.16
2018-12-06T22:30:18.021Z,98616.71
2018-12-06T22:32:46.503Z,98618.69
2018-12-06T22:35:14.928Z,98612.59
2018-12-06T22:37:43.389Z,98615.57
2018-12-06T22:40:11.825Z,98613.27
2018-12-06T22:42:40.293Z,98618.38
2018-12-06T22:45:18.803Z,98609.80
2018-12-06T22:47:47.268Z,98606.42
2018-12-06T22:50:16.033Z,98602.45
2018-12-06T22:52:44.519Z,98594.69
2018-12-06T22:55:12.958Z,98589.70
2018-12-06T22:57:41.424Z,98591.93
2018-12-06T23:00:13.136Z,98590.14
2018-12-06T23:02:41.599Z,98595.42
2018-12-06T23:05:10.036Z,98593.09
2018-12-06T23:07:38.564Z,98582.70
2018-12-06T23:10:07.472Z,98580.06
2018-12-06T23:12:35.899Z,98577.08
2018-12-06T23:15:04.832Z,98569.67
2018-12-06T23:17:33.299Z,98570.80
2018-12-06T23:20:01.745Z,98568.30
2018-12-06T23:22:30.220Z,98565.66
2018-12-06T23:24:58.678Z,98552.30
2018-12-06T23:27:27.263Z,98551.94
2018-12-06T23:29:55.708Z,98545.33
2018-12-06T23:32:24.177Z,98544.98
2018-12-06T23:34:52.625Z,98545.81
2018-12-06T23:37:21.080Z,98541.67
2018-12-06T23:39:49.529Z,98541.48
2018-12-06T23:42:17.994Z,98538.05
2018-12-06T23:44:46.434Z,98547.11
2018-12-06T23:47:14.916Z,98553.05
2018-12-06T23:49:43.344Z,98554.98
2018-12-06T23:52:11.821Z,98550.33
2018-12-06T23:54:40.359Z,98545.32
2018-12-06T23:57:08.816Z,98541.53
2018-12-06T23:59:37.323Z,98540.96
